עמוד ראשי
METAR-TAF:

METAR-TAF

שדות תעופה :

אבו דאבי, איחוד האמירויות הערביות

קו רוחב: 24-26N, קו אורך: 054-28E, גובה: 5מטר

תצפית מזג אוויר נוכחית

הדו"ח נערך לפני 1 שעות ו 7דקות, בשעה 20:00 UTC
רוח 4קשר מכיוון מערב, משתנה בין דרום-מערב ו צפון-מערב
טמפרטורת 35 צלסיוס
לחות 39%
לחץ 1000 hPa
ראות 10 קילומטר או יותר
ללא עננים שבסיסם נמוך מ 5000 רגל או קומולונימבוס

METAR: OMAD 132000Z 28004KT 230V320 CAVOK 35/19 Q1000 NOSIG

זמן: 01:07 (21:07 UTC)

תחזית

הדו"ח נערך לפני 4 שעות ו 7דקות, בשעה 17:00 UTC
תחזית בתוקף מ 13 ב 18 UTC עד 15 ב 00 UTC
רוח 8קשר מכיוון מערב/צפון-מערב
ראות: 8000מטר
יעשה מ
13 ב 18 UTC עד 13 ב 20 UTC
רוח 5קשר מכיוון דרום-מערב
יעשה מ
14 ב 05 UTC עד 14 ב 07 UTC
רוח 12קשר מכיוון צפון-מערב
יעשה מ
14 ב 17 UTC עד 14 ב 19 UTC
רוח 7קשר מכיוון דרום/דרום-מזרח

TAF: OMAD 131700Z 1318/1500 30008KT 8000 NSC BECMG 1318/1320 22005KT BECMG 1405/1407 32012KT BECMG 1417/1419 15007KT

תצפיות ותחזיות מזג אוויר לגבי יותר מ- 4,000 שדות תעופה ברחבי העולם. דוחות METAR ו- TAF.

התחנות הזמינות מסומנות בנקודות צהובות ואדומות על גבי המפה.

העבר את העכבר לנקודה הצבעונית על מנת לראות את שם התחנה.

לאחר מכן, לחץ כדי לראות את תוכן ואת תחזיות מזג האוויר.

כדי לשנות את המפה: לחץ על הכפתורים הירוקים עם הפלוס השחור כדי להתקרב; על הכפתור הירוק עם המקף כדי להתרחק; או בחיצים הירוקים למפות סמוכות.


METAR-TAF: